Time;durP1;ratioP1;P1;durP2;ratioP2;P2;SDS_P1;SDS_P2;PMS_P1;PMS_P2;Temp;Humidity;BMP_temperature;BMP_pressure;BME280_temperature;BME280_humidity;BME280_pressure;Samples;Min_cycle;Max_cycle;Signal;HPM_P1;HPM_P2
2023/12/11 00:00:24;;;;;;;35.60;2.78;;;10.00;99.90;;;;;;5039510;28;20045;-82
2023/12/11 00:02:50;;;;;;;29.40;3.78;;;10.00;99.90;;;;;;5074394;28;20033;-82
2023/12/11 00:05:16;;;;;;;24.40;2.30;;;10.00;99.90;;;;;;5047414;28;20028;-84
2023/12/11 00:07:42;;;;;;;30.88;3.67;;;9.90;99.90;;;;;;5043103;28;20116;-82
2023/12/11 00:10:08;;;;;;;26.27;3.17;;;10.10;99.90;;;;;;5046515;28;20090;-82
2023/12/11 00:12:34;;;;;;;23.45;2.53;;;9.90;99.90;;;;;;5046685;28;20078;-84
2023/12/11 00:14:59;;;;;;;29.27;2.80;;;10.00;99.90;;;;;;5041576;28;20030;-84
2023/12/11 00:17:27;;;;;;;23.13;2.33;;;9.90;99.90;;;;;;5045835;28;20033;-82
2023/12/11 00:19:53;;;;;;;25.23;3.75;;;9.90;99.90;;;;;;5062051;28;21519;-84
2023/12/11 00:22:19;;;;;;;25.20;2.30;;;10.00;99.90;;;;;;5037286;28;20108;-82
2023/12/11 00:24:44;;;;;;;27.30;2.47;;;9.90;99.90;;;;;;5077728;28;20029;-81
2023/12/11 00:27:13;;;;;;;18.58;1.92;;;9.90;99.90;;;;;;5044827;28;20028;-82
2023/12/11 00:29:39;;;;;;;28.92;2.78;;;9.80;99.90;;;;;;5043641;28;20087;-82
2023/12/11 00:32:05;;;;;;;23.77;2.47;;;9.70;99.90;;;;;;5063342;28;20033;-80
2023/12/11 00:34:32;;;;;;;31.45;3.78;;;9.80;99.90;;;;;;5042708;28;20387;-82
2023/12/11 00:36:58;;;;;;;21.92;2.22;;;9.80;99.90;;;;;;5046237;28;20068;-82
2023/12/11 00:39:24;;;;;;;22.30;2.15;;;9.70;99.90;;;;;;5047979;28;20460;-81
2023/12/11 00:41:50;;;;;;;26.17;2.40;;;9.70;99.90;;;;;;5046815;28;20060;-83
2023/12/11 00:44:16;;;;;;;20.17;2.55;;;9.60;99.90;;;;;;5065312;28;20061;-81
2023/12/11 00:46:42;;;;;;;22.50;2.60;;;9.60;99.90;;;;;;5081262;28;20040;-84
2023/12/11 00:49:08;;;;;;;13.07;1.40;;;9.50;99.90;;;;;;5047578;28;20033;-84
2023/12/11 00:51:34;;;;;;;17.27;1.60;;;9.40;99.90;;;;;;5048656;28;20037;-82
2023/12/11 00:54:00;;;;;;;20.48;1.92;;;9.50;99.90;;;;;;5048785;28;20035;-84
2023/12/11 00:56:26;;;;;;;20.52;1.15;;;9.40;99.90;;;;;;5036197;28;20464;-84
2023/12/11 00:58:51;;;;;;;18.60;1.75;;;9.50;99.90;;;;;;5033571;28;20032;-83
2023/12/11 01:01:17;;;;;;;22.10;2.17;;;9.40;99.90;;;;;;5050603;28;20041;-83
2023/12/11 01:03:43;;;;;;;23.08;1.77;;;9.50;99.90;;;;;;5050111;28;20025;-83
2023/12/11 01:06:09;;;;;;;15.75;1.17;;;9.40;99.90;;;;;;5049553;28;20102;-83
2023/12/11 01:08:38;;;;;;;16.00;1.80;;;9.40;99.90;;;;;;5027985;28;20029;-84
2023/12/11 01:11:04;;;;;;;14.87;1.30;;;9.30;99.90;;;;;;5051061;28;20067;-83
2023/12/11 01:13:30;;;;;;;15.25;1.10;;;9.30;99.90;;;;;;5039191;28;20771;-83
2023/12/11 01:15:56;;;;;;;25.35;2.38;;;9.30;99.90;;;;;;5043913;28;20037;-83
2023/12/11 01:18:23;;;;;;;19.33;1.42;;;9.30;99.90;;;;;;5050657;28;20473;-84
2023/12/11 01:20:50;;;;;;;16.75;2.10;;;9.30;99.90;;;;;;5039778;28;20064;-83
2023/12/11 01:23:15;;;;;;;18.70;1.45;;;9.20;99.90;;;;;;5065525;28;20017;-82
2023/12/11 01:25:41;;;;;;;23.05;2.60;;;9.20;99.90;;;;;;5078770;28;20382;-85
2023/12/11 01:28:07;;;;;;;21.90;1.42;;;9.20;99.90;;;;;;5032564;28;20040;-84
2023/12/11 01:30:33;;;;;;;12.35;0.85;;;9.20;99.90;;;;;;5043333;28;20063;-85
2023/12/11 01:32:59;;;;;;;10.68;1.65;;;9.10;99.90;;;;;;5065452;28;20033;-84
2023/12/11 01:35:24;;;;;;;21.63;1.85;;;9.20;99.90;;;;;;5050507;28;20070;-83
2023/12/11 01:37:50;;;;;;;18.13;1.50;;;9.20;99.90;;;;;;5080822;28;20025;-84
2023/12/11 01:40:16;;;;;;;15.98;1.58;;;9.30;99.90;;;;;;5064531;28;20531;-85
2023/12/11 01:42:42;;;;;;;13.15;1.77;;;9.30;99.90;;;;;;5037964;28;20028;-83
2023/12/11 01:45:08;;;;;;;13.40;1.40;;;9.20;99.90;;;;;;5032597;28;20389;-84
2023/12/11 01:47:34;;;;;;;15.77;1.10;;;9.10;99.90;;;;;;5050365;28;20098;-84
2023/12/11 01:49:59;;;;;;;16.90;1.95;;;9.10;99.90;;;;;;5036492;28;20513;-83
2023/12/11 01:52:26;;;;;;;17.73;1.65;;;9.10;99.90;;;;;;5031235;28;20024;-84
2023/12/11 01:54:52;;;;;;;20.42;1.58;;;9.10;99.90;;;;;;5049098;28;20457;-83
2023/12/11 01:57:18;;;;;;;12.65;1.27;;;9.10;99.90;;;;;;5035919;28;20022;-84
2023/12/11 01:59:44;;;;;;;14.55;1.58;;;9.00;99.90;;;;;;5030703;28;20055;-84
2023/12/11 02:02:10;;;;;;;12.98;0.90;;;9.00;99.90;;;;;;5049987;28;20048;-83
2023/12/11 02:04:36;;;;;;;13.13;1.20;;;9.10;99.90;;;;;;5037754;28;20536;-84
2023/12/11 02:07:02;;;;;;;11.95;1.00;;;9.10;99.90;;;;;;5078230;28;20091;-83
2023/12/11 02:09:28;;;;;;;18.35;1.25;;;9.10;99.90;;;;;;5064444;28;20033;-83
2023/12/11 02:11:55;;;;;;;18.88;1.95;;;9.10;99.90;;;;;;5079097;28;20040;-83
2023/12/11 02:14:22;;;;;;;21.88;1.60;;;9.10;99.90;;;;;;5033229;28;20025;-81
2023/12/11 02:16:50;;;;;;;21.55;1.83;;;9.10;99.90;;;;;;5049382;28;20460;-83
2023/12/11 02:19:15;;;;;;;18.08;1.58;;;9.30;99.90;;;;;;5062367;28;20020;-82
2023/12/11 02:21:41;;;;;;;15.52;1.25;;;9.20;99.90;;;;;;5043560;28;20461;-81
2023/12/11 02:24:20;;;;;;;22.23;1.42;;;9.30;99.90;;;;;;5036983;28;20029;-83
2023/12/11 02:26:46;;;;;;;20.60;1.42;;;9.20;99.90;;;;;;5043365;28;20477;-82
2023/12/11 02:29:12;;;;;;;17.52;1.27;;;9.20;99.90;;;;;;5046832;28;20530;-83
2023/12/11 02:31:38;;;;;;;19.00;1.25;;;9.30;99.90;;;;;;5045414;28;20029;-82
2023/12/11 02:34:04;;;;;;;15.93;1.35;;;9.40;99.90;;;;;;5049143;28;20062;-83
2023/12/11 02:36:29;;;;;;;12.18;1.10;;;9.40;99.90;;;;;;5047316;28;20432;-82
2023/12/11 02:38:55;;;;;;;16.63;1.10;;;9.40;99.90;;;;;;5049231;28;20017;-83
2023/12/11 02:41:21;;;;;;;14.90;1.15;;;9.40;99.90;;;;;;5048943;28;20058;-83
2023/12/11 02:43:47;;;;;;;13.27;1.23;;;9.40;99.90;;;;;;5044943;28;20444;-83
2023/12/11 02:46:12;;;;;;;17.83;1.55;;;9.50;99.90;;;;;;5080442;28;20028;-82
2023/12/11 02:48:38;;;;;;;12.13;0.80;;;9.50;99.90;;;;;;5077267;28;20025;-82
2023/12/11 02:51:04;;;;;;;23.08;2.33;;;9.50;99.90;;;;;;5080709;28;20083;-83
2023/12/11 02:53:30;;;;;;;22.33;2.08;;;9.60;99.90;;;;;;5046025;28;20481;-82
2023/12/11 02:55:56;;;;;;;27.73;2.30;;;9.60;99.90;;;;;;5037254;28;20065;-85
2023/12/11 02:58:21;;;;;;;20.05;1.75;;;9.70;99.90;;;;;;5035847;28;20496;-82
2023/12/11 03:00:47;;;;;;;15.70;1.85;;;9.70;99.90;;;;;;5044816;28;20049;-82
2023/12/11 03:03:13;;;;;;;22.65;2.03;;;9.60;99.90;;;;;;5047565;28;20033;-82
2023/12/11 03:05:39;;;;;;;16.13;1.00;;;9.70;99.90;;;;;;5043916;28;20033;-82
2023/12/11 03:08:05;;;;;;;21.15;1.60;;;9.60;99.90;;;;;;5047540;28;20021;-83
2023/12/11 03:10:32;;;;;;;20.05;1.95;;;9.70;99.90;;;;;;5042349;28;20124;-83
2023/12/11 03:12:57;;;;;;;23.15;1.95;;;9.70;99.90;;;;;;5045942;28;20025;-83
2023/12/11 03:15:23;;;;;;;20.65;1.67;;;9.70;99.90;;;;;;5043503;28;20543;-85
2023/12/11 03:17:49;;;;;;;19.20;1.30;;;9.70;99.90;;;;;;5064138;28;20035;-83
2023/12/11 03:20:15;;;;;;;9.20;1.02;;;9.70;99.90;;;;;;5058815;28;20024;-82
2023/12/11 03:22:41;;;;;;;19.85;1.83;;;9.70;99.90;;;;;;5078443;28;20458;-81
2023/12/11 03:25:07;;;;;;;14.98;0.95;;;9.80;99.90;;;;;;5046461;28;20056;-81
2023/12/11 03:27:33;;;;;;;14.68;1.30;;;9.80;99.90;;;;;;5047106;28;20555;-86
2023/12/11 03:29:58;;;;;;;21.48;1.15;;;9.70;99.90;;;;;;5037406;28;20025;-82
2023/12/11 03:32:24;;;;;;;21.77;3.00;;;9.70;99.90;;;;;;5062438;28;20485;-82
2023/12/11 03:34:50;;;;;;;20.30;1.42;;;9.80;99.90;;;;;;5046210;28;20032;-83
2023/12/11 03:37:16;;;;;;;22.63;1.65;;;9.70;99.90;;;;;;5078273;28;20100;-84
2023/12/11 03:39:41;;;;;;;26.35;2.75;;;9.80;99.90;;;;;;5047929;28;20400;-84
2023/12/11 03:42:07;;;;;;;15.07;1.83;;;9.90;99.90;;;;;;5048001;28;20446;-83
2023/12/11 03:44:33;;;;;;;21.67;1.88;;;9.90;99.90;;;;;;5043386;28;20037;-81
2023/12/11 03:46:58;;;;;;;27.42;2.88;;;10.00;99.90;;;;;;5072650;28;20021;-80
2023/12/11 03:49:25;;;;;;;15.50;1.38;;;10.00;99.90;;;;;;5076581;28;20025;-80
2023/12/11 03:51:51;;;;;;;20.75;2.13;;;9.90;99.90;;;;;;5042964;28;20116;-79
2023/12/11 03:54:16;;;;;;;22.60;2.22;;;9.90;99.90;;;;;;5045944;28;20096;-81
2023/12/11 03:56:42;;;;;;;23.80;1.38;;;9.90;99.90;;;;;;5047587;28;20043;-83
2023/12/11 03:59:08;;;;;;;19.75;1.60;;;9.80;99.90;;;;;;5076378;28;20112;-84
2023/12/11 04:01:34;;;;;;;17.70;1.13;;;9.80;99.90;;;;;;5043026;28;20157;-82
2023/12/11 04:04:00;;;;;;;21.27;1.20;;;9.80;99.90;;;;;;5047251;28;20029;-83
2023/12/11 04:06:26;;;;;;;20.08;1.38;;;9.70;99.90;;;;;;5045198;28;20056;-82
2023/12/11 04:08:52;;;;;;;15.30;1.58;;;9.70;99.90;;;;;;5043794;28;20485;-83
2023/12/11 04:11:18;;;;;;;14.25;0.93;;;9.60;99.90;;;;;;5044833;28;20037;-81
2023/12/11 04:13:44;;;;;;;14.05;1.45;;;9.60;99.90;;;;;;5039770;28;20021;-82
2023/12/11 04:16:10;;;;;;;10.10;0.50;;;9.60;99.90;;;;;;5031365;28;20030;-80
2023/12/11 04:18:39;;;;;;;3.20;0.40;;;9.60;99.90;;;;;;5045881;28;20485;-82
2023/12/11 04:21:05;;;;;;;4.13;0.30;;;9.70;99.90;;;;;;5046809;28;20112;-81
2023/12/11 04:23:31;;;;;;;6.10;0.40;;;9.70;99.90;;;;;;5075760;28;20121;-80
2023/12/11 04:25:59;;;;;;;7.78;0.30;;;9.70;99.90;;;;;;5082250;28;20123;-80
2023/12/11 04:28:25;;;;;;;2.95;0.30;;;9.60;99.90;;;;;;5049231;28;20032;-81
2023/12/11 04:30:51;;;;;;;8.57;0.70;;;9.50;99.90;;;;;;5049187;28;20125;-79
2023/12/11 04:33:17;;;;;;;16.85;1.05;;;9.60;99.90;;;;;;5049260;28;20104;-81
2023/12/11 04:35:44;;;;;;;11.18;0.73;;;9.70;99.90;;;;;;5078655;28;20083;-82
2023/12/11 04:38:09;;;;;;;9.20;0.80;;;9.70;99.90;;;;;;5048520;28;20149;-80
2023/12/11 04:40:35;;;;;;;9.73;0.52;;;9.60;99.90;;;;;;5047891;28;20505;-82
2023/12/11 04:43:01;;;;;;;8.98;0.60;;;9.60;99.90;;;;;;5050706;28;20037;-81
2023/12/11 04:45:27;;;;;;;18.88;1.13;;;9.50;99.90;;;;;;5064998;28;20036;-81
2023/12/11 04:47:52;;;;;;;21.92;2.00;;;9.60;99.90;;;;;;5048431;28;20025;-81
2023/12/11 04:50:18;;;;;;;15.88;1.20;;;9.50;99.90;;;;;;5038153;28;20119;-81
2023/12/11 04:52:44;;;;;;;12.80;1.75;;;9.50;99.90;;;;;;5077866;28;20090;-83
2023/12/11 04:55:10;;;;;;;14.05;1.05;;;9.50;99.90;;;;;;5046328;28;20025;-81
2023/12/11 04:57:35;;;;;;;14.68;0.90;;;9.50;99.90;;;;;;5038144;28;20025;-83
2023/12/11 05:00:01;;;;;;;12.65;0.85;;;9.50;99.90;;;;;;5049595;28;20048;-85
2023/12/11 05:02:27;;;;;;;13.30;1.25;;;9.50;99.90;;;;;;5045358;28;20032;-80
2023/12/11 05:04:52;;;;;;;16.25;2.05;;;9.50;99.90;;;;;;5050694;28;20118;-81
2023/12/11 05:07:18;;;;;;;17.67;1.00;;;9.60;99.90;;;;;;5046378;28;20025;-82
2023/12/11 05:09:44;;;;;;;23.92;2.03;;;9.60;99.90;;;;;;5065821;28;20029;-80
2023/12/11 05:12:10;;;;;;;15.98;1.50;;;9.70;99.90;;;;;;5049989;28;20056;-79
2023/12/11 05:14:35;;;;;;;22.13;2.25;;;9.70;99.90;;;;;;5045863;28;20032;-84
2023/12/11 05:17:01;;;;;;;23.23;2.42;;;9.80;99.90;;;;;;5048631;28;20198;-83
2023/12/11 05:19:27;;;;;;;21.35;1.88;;;9.80;99.90;;;;;;5047265;28;20029;-83
2023/12/11 05:21:53;;;;;;;23.90;2.45;;;9.90;99.90;;;;;;5050083;28;20017;-82
2023/12/11 05:24:18;;;;;;;20.00;1.85;;;9.90;99.90;;;;;;5058948;28;20027;-81
2023/12/11 05:26:44;;;;;;;20.75;1.35;;;9.90;99.90;;;;;;5079409;28;20033;-81
2023/12/11 05:29:10;;;;;;;27.25;2.60;;;9.90;99.90;;;;;;5049159;28;20048;-83
2023/12/11 05:31:36;;;;;;;24.08;1.70;;;9.90;99.90;;;;;;5066777;28;20434;-80
2023/12/11 05:34:02;;;;;;;16.88;1.02;;;9.90;99.90;;;;;;5048778;28;20060;-81
2023/12/11 05:36:28;;;;;;;17.17;1.45;;;9.80;99.90;;;;;;5042915;28;20186;-82
2023/12/11 05:38:53;;;;;;;12.63;0.80;;;9.80;99.90;;;;;;5049091;28;20234;-81
2023/12/11 05:41:19;;;;;;;22.65;1.38;;;9.80;99.90;;;;;;5037803;28;20028;-83
2023/12/11 05:43:45;;;;;;;9.77;1.10;;;9.80;99.90;;;;;;5047582;28;20087;-80
2023/12/11 05:46:11;;;;;;;14.02;1.00;;;9.70;99.90;;;;;;5045651;28;20045;-81
2023/12/11 05:48:36;;;;;;;13.65;1.00;;;9.80;99.90;;;;;;5048859;28;20025;-80
2023/12/11 05:51:02;;;;;;;17.83;1.40;;;9.80;99.90;;;;;;5039164;28;20090;-82
2023/12/11 05:53:28;;;;;;;13.55;0.77;;;9.70;99.90;;;;;;5050023;28;20033;-80
2023/12/11 05:55:54;;;;;;;17.55;1.08;;;9.80;99.90;;;;;;5045974;28;20028;-82
2023/12/11 05:58:19;;;;;;;12.77;1.05;;;9.70;99.90;;;;;;5025462;28;20029;-81
2023/12/11 06:00:45;;;;;;;16.98;1.92;;;9.80;99.90;;;;;;5049354;28;20088;-82
2023/12/11 06:03:11;;;;;;;9.75;0.90;;;9.70;99.90;;;;;;5041277;28;20017;-81
2023/12/11 06:05:37;;;;;;;24.95;1.38;;;9.70;99.90;;;;;;5037387;28;20033;-81
2023/12/11 06:08:04;;;;;;;17.67;1.38;;;9.80;99.90;;;;;;5048068;28;20029;-80
2023/12/11 06:10:30;;;;;;;14.48;1.10;;;9.80;99.90;;;;;;5044256;28;20062;-84
2023/12/11 06:12:55;;;;;;;12.52;1.85;;;9.80;99.90;;;;;;5059842;28;20023;-81
2023/12/11 06:15:22;;;;;;;14.73;0.90;;;9.80;99.90;;;;;;5046469;28;20032;-80
2023/12/11 06:17:48;;;;;;;14.98;1.35;;;9.70;99.90;;;;;;5047881;28;20385;-81
2023/12/11 06:20:13;;;;;;;13.80;0.90;;;9.70;99.90;;;;;;5042770;28;20036;-81
2023/12/11 06:22:39;;;;;;;11.18;0.90;;;9.70;99.90;;;;;;5049020;28;20014;-81
2023/12/11 06:25:05;;;;;;;16.75;1.38;;;9.70;99.90;;;;;;5042812;28;20114;-81
2023/12/11 06:27:31;;;;;;;14.73;1.25;;;9.70;99.90;;;;;;5044121;28;20064;-81
2023/12/11 06:29:57;;;;;;;11.38;0.70;;;9.80;99.90;;;;;;5038741;28;20126;-81
2023/12/11 06:32:22;;;;;;;15.43;1.27;;;9.70;99.90;;;;;;5044012;28;20032;-81
2023/12/11 06:34:48;;;;;;;9.65;1.50;;;9.70;99.90;;;;;;5039363;28;20033;-84
2023/12/11 06:37:14;;;;;;;14.18;0.77;;;9.70;99.90;;;;;;5045267;28;20021;-82
2023/12/11 06:39:40;;;;;;;12.40;1.55;;;9.70;99.90;;;;;;5036565;28;20021;-81
2023/12/11 06:42:06;;;;;;;15.20;1.33;;;9.70;99.90;;;;;;5042535;28;20021;-81
2023/12/11 06:44:31;;;;;;;12.88;0.70;;;9.70;99.90;;;;;;5061976;28;20029;-80
2023/12/11 06:46:57;;;;;;;21.73;2.03;;;9.70;99.90;;;;;;5047386;28;20025;-81
2023/12/11 06:49:23;;;;;;;15.55;1.48;;;9.80;99.90;;;;;;5065167;28;20029;-83
2023/12/11 06:51:49;;;;;;;16.38;1.13;;;9.80;99.90;;;;;;5048797;28;20413;-81
2023/12/11 06:54:15;;;;;;;17.95;1.15;;;9.80;99.90;;;;;;5044157;28;20025;-81
2023/12/11 06:56:41;;;;;;;17.52;1.20;;;9.80;99.90;;;;;;5042719;28;20512;-81
2023/12/11 06:59:07;;;;;;;18.00;1.13;;;9.80;99.90;;;;;;5045894;28;20028;-85
2023/12/11 07:01:35;;;;;;;15.40;1.52;;;9.80;99.90;;;;;;5042226;28;20045;-81
2023/12/11 07:04:01;;;;;;;13.15;0.75;;;9.80;99.90;;;;;;5063382;28;20358;-81
2023/12/11 07:06:27;;;;;;;20.48;1.48;;;9.80;99.90;;;;;;5046336;28;20501;-80
2023/12/11 07:08:53;;;;;;;23.70;1.83;;;9.80;99.90;;;;;;5074776;28;20405;-81
2023/12/11 07:11:19;;;;;;;17.52;1.70;;;9.80;99.90;;;;;;5038115;28;20041;-80
2023/12/11 07:13:45;;;;;;;19.60;1.77;;;9.70;99.90;;;;;;5033715;28;20025;-79
2023/12/11 07:16:11;;;;;;;17.95;1.00;;;9.80;99.90;;;;;;5046484;28;20032;-81
2023/12/11 07:18:38;;;;;;;15.30;1.08;;;9.70;99.90;;;;;;5046498;28;20060;-80
2023/12/11 07:21:11;;;;;;;18.25;1.27;;;9.70;99.90;;;;;;5035288;28;20025;-80
2023/12/11 07:23:38;;;;;;;24.10;1.42;;;9.80;99.90;;;;;;5044618;28;20017;-81
2023/12/11 07:26:07;;;;;;;17.50;1.30;;;9.90;99.90;;;;;;5064005;28;20551;-82
2023/12/11 07:28:34;;;;;;;25.77;1.95;;;9.80;99.90;;;;;;5043820;28;20021;-80
2023/12/11 07:31:02;;;;;;;18.92;1.65;;;9.90;99.90;;;;;;5076194;28;20509;-82
2023/12/11 07:33:28;;;;;;;19.52;1.35;;;9.90;99.90;;;;;;5044034;28;20029;-80
2023/12/11 07:35:54;;;;;;;21.50;1.20;;;9.80;99.90;;;;;;5028294;28;20031;-81
2023/12/11 07:38:19;;;;;;;20.38;1.63;;;9.80;99.90;;;;;;5043754;28;20027;-81
2023/12/11 07:40:46;;;;;;;16.60;1.65;;;9.80;99.90;;;;;;5045138;28;20037;-81
2023/12/11 07:43:12;;;;;;;20.40;1.90;;;9.80;99.90;;;;;;5047225;28;20104;-83
2023/12/11 07:45:37;;;;;;;13.98;0.93;;;9.80;99.90;;;;;;5044405;28;20431;-81
2023/12/11 07:48:04;;;;;;;18.63;1.52;;;9.70;99.90;;;;;;5034671;28;20021;-82
2023/12/11 07:50:29;;;;;;;14.13;0.85;;;9.70;99.90;;;;;;5041795;28;20126;-82
2023/12/11 07:52:55;;;;;;;19.30;1.08;;;9.70;99.90;;;;;;5034412;28;20117;-81
2023/12/11 07:55:21;;;;;;;12.60;1.10;;;9.70;99.90;;;;;;5043524;28;20075;-82
2023/12/11 07:57:47;;;;;;;15.32;0.80;;;9.70;99.90;;;;;;5028245;28;20060;-81
2023/12/11 08:00:13;;;;;;;17.63;0.95;;;9.70;99.90;;;;;;5060587;28;20044;-82
2023/12/11 08:02:39;;;;;;;17.33;1.50;;;9.70;99.90;;;;;;5046136;28;20025;-81
2023/12/11 08:05:04;;;;;;;14.55;0.90;;;9.80;99.90;;;;;;5047621;28;20393;-80
2023/12/11 08:07:30;;;;;;;15.93;1.08;;;9.80;99.90;;;;;;5042946;28;20392;-81
2023/12/11 08:09:56;;;;;;;13.65;1.02;;;9.70;99.90;;;;;;5045842;28;20045;-81
2023/12/11 08:12:22;;;;;;;19.38;1.70;;;9.60;99.90;;;;;;5024383;28;20032;-80
2023/12/11 08:14:47;;;;;;;10.88;0.70;;;9.60;99.90;;;;;;5045146;28;20116;-80
2023/12/11 08:17:13;;;;;;;15.00;0.80;;;9.60;99.90;;;;;;5045012;28;20021;-80
2023/12/11 08:19:39;;;;;;;12.48;0.50;;;9.60;99.90;;;;;;5043614;28;20537;-84
2023/12/11 08:22:05;;;;;;;17.70;1.40;;;9.70;99.90;;;;;;5027190;28;20053;-80
2023/12/11 08:24:30;;;;;;;13.88;0.90;;;9.70;99.90;;;;;;5044377;28;20029;-80
2023/12/11 08:26:56;;;;;;;13.50;0.80;;;9.80;99.90;;;;;;5075182;28;20112;-82
2023/12/11 08:29:22;;;;;;;15.80;1.38;;;9.70;99.90;;;;;;5046184;28;20041;-83
2023/12/11 08:31:49;;;;;;;10.88;0.63;;;9.70;99.90;;;;;;5046470;28;20033;-84
2023/12/11 08:34:14;;;;;;;9.75;0.57;;;9.60;99.90;;;;;;5043795;28;20033;-80
2023/12/11 08:36:40;;;;;;;11.85;1.15;;;9.60;99.90;;;;;;5043080;28;20021;-80
2023/12/11 08:39:06;;;;;;;12.80;0.90;;;9.60;99.90;;;;;;5047725;28;20469;-82
2023/12/11 08:41:33;;;;;;;11.00;0.60;;;9.50;99.90;;;;;;5046976;28;20505;-81
2023/12/11 08:43:59;;;;;;;8.90;0.50;;;9.50;99.90;;;;;;5043166;28;20106;-80
2023/12/11 08:46:25;;;;;;;14.05;0.68;;;9.50;99.90;;;;;;5042802;28;20465;-79
2023/12/11 08:48:51;;;;;;;9.88;0.60;;;9.40;99.90;;;;;;5045394;28;20048;-81
2023/12/11 08:51:18;;;;;;;8.57;0.57;;;9.50;99.90;;;;;;5057682;28;20434;-81
2023/12/11 08:53:44;;;;;;;11.25;0.73;;;9.50;99.90;;;;;;5044768;28;20256;-80
2023/12/11 08:56:10;;;;;;;5.80;0.47;;;9.50;99.90;;;;;;5023927;28;20021;-80
2023/12/11 08:58:36;;;;;;;8.23;0.55;;;9.50;99.90;;;;;;5048967;28;20017;-81
2023/12/11 09:01:03;;;;;;;7.72;0.60;;;9.60;99.90;;;;;;5043848;28;20484;-80
2023/12/11 09:03:29;;;;;;;7.18;0.60;;;9.60;99.90;;;;;;5042094;28;20052;-79
2023/12/11 09:05:55;;;;;;;9.85;0.80;;;9.60;99.90;;;;;;5033770;28;20217;-82
2023/12/11 09:08:21;;;;;;;9.18;0.70;;;9.60;99.90;;;;;;5044050;28;20013;-80
2023/12/11 09:10:47;;;;;;;12.48;1.10;;;9.60;99.90;;;;;;5047461;28;20041;-80
2023/12/11 09:13:12;;;;;;;14.30;1.13;;;9.70;99.90;;;;;;5046346;28;20020;-82
2023/12/11 09:15:38;;;;;;;8.65;1.15;;;9.70;99.90;;;;;;5077436;28;20033;-83
2023/12/11 09:18:06;;;;;;;8.85;0.80;;;9.70;99.90;;;;;;5064871;28;20029;-80
2023/12/11 09:20:32;;;;;;;7.53;0.60;;;9.60;99.90;;;;;;5045970;28;20086;-80
2023/12/11 09:22:57;;;;;;;9.07;0.98;;;9.60;99.90;;;;;;5049185;28;21558;-80
2023/12/11 09:25:23;;;;;;;7.43;1.23;;;9.70;99.90;;;;;;5046095;28;20033;-80
2023/12/11 09:27:49;;;;;;;10.20;0.85;;;9.70;99.90;;;;;;5048305;28;20025;-81
2023/12/11 09:30:15;;;;;;;7.80;0.60;;;9.70;99.90;;;;;;5046691;28;20033;-81
2023/12/11 09:32:41;;;;;;;12.50;0.95;;;9.70;99.90;;;;;;5037638;28;20033;-81
2023/12/11 09:35:07;;;;;;;7.07;0.50;;;9.70;99.90;;;;;;5047099;28;20065;-80
2023/12/11 09:37:33;;;;;;;7.18;0.90;;;9.80;99.90;;;;;;5045573;28;20021;-80
2023/12/11 09:39:59;;;;;;;11.25;0.70;;;9.80;99.90;;;;;;5078582;28;20044;-81
2023/12/11 09:42:26;;;;;;;9.93;1.08;;;9.80;99.90;;;;;;5050354;28;20025;-84
2023/12/11 09:44:52;;;;;;;6.35;0.47;;;9.80;99.90;;;;;;5033002;28;20025;-82
2023/12/11 09:47:29;;;;;;;11.70;0.73;;;9.80;99.90;;;;;;5048783;28;20672;-82
2023/12/11 09:49:55;;;;;;;8.38;0.47;;;9.80;99.90;;;;;;5046575;28;20012;-83
2023/12/11 09:52:22;;;;;;;3.65;0.45;;;9.80;99.90;;;;;;5047898;28;20574;-81
2023/12/11 09:54:48;;;;;;;8.20;1.00;;;9.80;99.90;;;;;;5082636;28;20021;-82
2023/12/11 09:57:15;;;;;;;3.55;0.40;;;9.80;99.90;;;;;;5034592;28;20060;-83
2023/12/11 09:59:42;;;;;;;5.32;0.40;;;9.70;99.90;;;;;;5047637;28;20053;-81
2023/12/11 10:02:14;;;;;;;11.05;0.60;;;9.80;99.90;;;;;;5044456;28;20474;-82
2023/12/11 10:05:03;;;;;;;7.82;0.45;;;9.80;99.90;;;;;;5032787;28;20027;-84
2023/12/11 10:07:33;;;;;;;6.50;0.50;;;9.80;99.90;;;;;;5075857;28;20028;-83
2023/12/11 10:10:15;;;;;;;7.07;0.73;;;9.80;99.90;;;;;;5043070;28;20363;-83
2023/12/11 10:12:41;;;;;;;6.97;0.80;;;9.80;99.90;;;;;;5035463;28;20547;-81
2023/12/11 10:15:07;;;;;;;5.80;0.50;;;9.80;99.90;;;;;;5049028;28;20100;-85
2023/12/11 10:17:32;;;;;;;9.30;0.55;;;9.80;99.90;;;;;;5049415;28;20025;-80
2023/12/11 10:19:58;;;;;;;7.97;0.60;;;9.90;99.90;;;;;;5046728;28;20519;-79
2023/12/11 10:22:32;;;;;;;10.02;0.77;;;9.90;99.90;;;;;;5046733;28;20025;-80
2023/12/11 10:24:58;;;;;;;5.68;0.40;;;9.80;99.90;;;;;;5042893;28;20032;-83
2023/12/11 10:27:25;;;;;;;9.38;0.63;;;9.80;99.90;;;;;;5046555;28;20009;-83
2023/12/11 10:30:07;;;;;;;7.43;0.68;;;9.70;99.90;;;;;;5045429;28;20078;-82
2023/12/11 10:32:32;;;;;;;10.27;0.70;;;9.60;99.90;;;;;;5061419;28;20029;-82
2023/12/11 10:34:58;;;;;;;7.88;0.60;;;9.60;99.90;;;;;;5048980;28;20032;-83
2023/12/11 10:37:30;;;;;;;8.70;1.05;;;9.60;99.90;;;;;;5045177;28;20412;-82
2023/12/11 10:39:57;;;;;;;16.00;1.23;;;9.60;99.90;;;;;;5046438;28;20025;-82
2023/12/11 10:42:23;;;;;;;11.13;0.85;;;9.50;99.90;;;;;;5046627;28;20477;-81
2023/12/11 10:44:53;;;;;;;10.50;0.73;;;9.50;99.90;;;;;;5064952;28;20021;-84
2023/12/11 10:47:19;;;;;;;;;;;9.60;99.90;;;;;;5057211;28;20032;-81
2023/12/11 10:49:45;;;;;;;8.50;1.23;;;9.70;99.90;;;;;;5045027;28;19909;-84
2023/12/11 10:52:12;;;;;;;9.13;0.85;;;9.70;99.90;;;;;;5060340;28;20397;-81
2023/12/11 10:54:38;;;;;;;16.27;1.63;;;9.70;99.90;;;;;;5047988;28;20092;-84
2023/12/11 10:57:08;;;;;;;9.55;0.73;;;9.70;99.90;;;;;;5044383;28;20108;-84
2023/12/11 10:59:35;;;;;;;9.35;0.80;;;9.70;99.90;;;;;;5063765;28;20017;-84
2023/12/11 11:02:02;;;;;;;13.13;0.80;;;9.70;99.90;;;;;;5080525;28;20033;-84
2023/12/11 11:04:33;;;;;;;14.32;1.08;;;9.70;99.90;;;;;;5045538;28;20064;-85
2023/12/11 11:07:08;;;;;;;14.13;0.70;;;9.70;99.90;;;;;;5074385;28;20029;-83
2023/12/11 11:09:40;;;;;;;9.75;1.17;;;9.70;99.90;;;;;;5037631;28;20025;-81
2023/12/11 11:12:34;;;;;;;12.70;0.98;;;9.60;99.90;;;;;;5045236;28;20188;-86
2023/12/11 11:15:00;;;;;;;8.05;0.95;;;9.70;99.90;;;;;;5044417;28;20063;-83
2023/12/11 11:18:03;;;;;;;10.98;0.85;;;9.70;99.90;;;;;;5042922;28;20052;-83
2023/12/11 11:20:38;;;;;;;10.82;0.63;;;9.60;99.90;;;;;;5045082;28;20139;-84
2023/12/11 11:23:16;;;;;;;16.83;1.30;;;9.70;99.90;;;;;;5063369;28;20067;-82
2023/12/11 11:25:52;;;;;;;13.07;1.05;;;9.70;99.90;;;;;;5043145;28;20481;-81
2023/12/11 11:28:39;;;;;;;11.15;0.85;;;9.70;99.90;;;;;;5048099;28;20408;-81
2023/12/11 11:31:05;;;;;;;12.05;1.30;;;9.70;99.90;;;;;;5045607;28;20045;-84
2023/12/11 11:33:52;;;;;;;8.15;1.17;;;9.80;99.90;;;;;;5061678;28;20393;-84
2023/12/11 11:36:20;;;;;;;7.07;0.52;;;9.80;99.90;;;;;;5033059;28;20036;-84
2023/12/11 11:38:57;;;;;;;7.38;0.50;;;9.70;99.90;;;;;;5043178;28;20026;-80
2023/12/11 11:41:28;;;;;;;9.13;0.80;;;9.60;99.90;;;;;;5059379;28;20433;-84
2023/12/11 11:44:01;;;;;;;9.13;0.40;;;9.50;99.90;;;;;;5046740;28;20354;-81
2023/12/11 11:46:53;;;;;;;3.35;0.32;;;9.50;99.90;;;;;;5030691;28;20040;-83
2023/12/11 11:49:34;;;;;;;7.75;0.90;;;9.50;99.90;;;;;;5063957;28;20150;-83
2023/12/11 11:52:03;;;;;;;10.05;0.73;;;9.50;99.90;;;;;;5042358;28;20037;-82
2023/12/11 11:54:29;;;;;;;6.82;0.40;;;9.50;99.90;;;;;;5030920;28;20040;-79
2023/12/11 11:56:55;;;;;;;10.10;0.57;;;9.80;99.90;;;;;;5024417;28;20037;-81
2023/12/11 11:59:21;;;;;;;8.73;1.15;;;10.10;99.90;;;;;;5035017;28;20033;-81
2023/12/11 12:01:57;;;;;;;6.28;0.65;;;10.10;99.90;;;;;;5033435;28;20033;-79
2023/12/11 12:04:34;;;;;;;8.80;0.70;;;10.20;99.90;;;;;;5041260;28;20041;-79
2023/12/11 12:07:04;;;;;;;7.25;0.30;;;10.20;99.90;;;;;;5041356;28;20116;-81
2023/12/11 12:09:31;;;;;;;15.15;1.02;;;10.40;99.90;;;;;;5033104;28;20064;-82
2023/12/11 12:11:58;;;;;;;6.13;0.98;;;10.30;96.80;;;;;;5034867;28;20564;-82
2023/12/11 12:14:25;;;;;;;8.30;0.30;;;10.20;94.50;;;;;;5032759;28;20033;-79
2023/12/11 12:16:52;;;;;;;6.90;0.50;;;10.00;91.90;;;;;;5032124;28;20036;-83
2023/12/11 12:19:33;;;;;;;8.88;0.38;;;10.00;89.30;;;;;;5062771;28;20079;-79
2023/12/11 12:22:01;;;;;;;5.60;0.50;;;9.90;87.90;;;;;;5062402;28;20485;-79
2023/12/11 12:24:27;;;;;;;5.28;0.45;;;9.80;89.60;;;;;;5029964;28;20083;-81
2023/12/11 12:27:06;;;;;;;6.30;0.40;;;9.70;90.80;;;;;;5031110;28;20094;-78
2023/12/11 12:29:33;;;;;;;7.93;0.88;;;9.70;91.90;;;;;;5046378;28;20033;-78
2023/12/11 12:31:59;;;;;;;8.13;0.45;;;9.60;92.70;;;;;;5030487;28;20043;-79
2023/12/11 12:34:27;;;;;;;5.25;0.40;;;9.80;92.20;;;;;;5033570;28;20071;-80
2023/12/11 12:36:58;;;;;;;8.27;0.50;;;9.80;92.30;;;;;;5034276;28;20033;-80
2023/12/11 12:39:24;;;;;;;7.53;0.50;;;9.90;94.40;;;;;;5033543;28;20106;-79
2023/12/11 12:41:51;;;;;;;6.28;0.57;;;9.90;93.70;;;;;;5036864;28;20025;-80
2023/12/11 12:44:20;;;;;;;7.65;0.43;;;9.80;92.40;;;;;;5045268;28;20021;-80
2023/12/11 12:46:46;;;;;;;9.75;0.60;;;9.80;92.50;;;;;;5046916;28;20393;-79
2023/12/11 12:49:16;;;;;;;8.38;0.52;;;9.80;92.00;;;;;;5047532;28;20029;-80